Time,TemperatureF,DewpointF,PressureIn,WindDirection,WindDirectionDegrees,WindSpeedMPH,WindSpeedGustMPH,Humidity,HourlyPrecipIn,Conditions,Clouds,dailyrainin,SoftwareType,DateUTC
2013-09-22 00:01:00,61.6,58.3,29.87,East,97,0.0,1.0,89,0.00,,---,0.00,VWS V14.01,2013-09-22 07:01:00,
2013-09-22 00:06:00,61.6,58.3,29.87,East,97,0.0,1.0,89,0.00,,---,0.00,VWS V14.01,2013-09-22 07:06:00,
2013-09-22 00:11:00,61.7,58.4,29.87,East,97,0.0,1.0,89,0.00,,---,0.00,VWS V14.01,2013-09-22 07:11:00,
2013-09-22 00:16:00,61.7,58.4,29.87,East,97,0.0,1.0,89,0.00,,---,0.00,VWS V14.01,2013-09-22 07:16:00,
2013-09-22 00:21:00,61.7,58.1,29.88,East,97,0.0,1.0,88,0.00,,---,0.00,VWS V14.01,2013-09-22 07:21:00,
2013-09-22 00:26:00,61.7,58.1,29.87,East,97,0.0,1.0,88,0.00,,---,0.00,VWS V14.01,2013-09-22 07:26:00,
2013-09-22 00:31:00,61.7,58.1,29.87,East,97,0.0,0.0,88,0.00,,---,0.00,VWS V14.01,2013-09-22 07:31:00,
2013-09-22 00:36:00,61.7,58.1,29.87,East,97,0.0,0.0,88,0.00,,---,0.00,VWS V14.01,2013-09-22 07:36:00,
2013-09-22 00:41:00,61.8,57.9,29.87,East,97,0.0,1.0,87,0.00,,---,0.00,VWS V14.01,2013-09-22 07:41:00,
2013-09-22 00:46:00,61.9,58.0,29.87,East,97,0.0,1.0,87,0.00,,---,0.00,VWS V14.01,2013-09-22 07:46:00,
2013-09-22 00:51:00,61.9,58.0,29.87,East,97,0.0,1.0,87,0.00,,---,0.00,VWS V14.01,2013-09-22 07:51:00,
2013-09-22 00:56:00,62.0,58.1,29.87,East,97,0.0,1.0,87,0.00,,---,0.00,VWS V14.01,2013-09-22 07:56:00,
2013-09-22 01:01:00,62.0,58.1,29.87,East,97,0.0,1.0,87,0.00,,---,0.00,VWS V14.01,2013-09-22 08:01:00,
2013-09-22 01:06:00,62.1,58.2,29.87,East,97,0.0,1.0,87,0.00,,---,0.00,VWS V14.01,2013-09-22 08:06:00,
2013-09-22 01:11:00,62.1,58.2,29.87,East,97,0.0,1.0,87,0.00,,---,0.00,VWS V14.01,2013-09-22 08:11:00,
2013-09-22 01:16:00,62.1,58.2,29.87,East,97,0.0,1.0,87,0.00,,---,0.00,VWS V14.01,2013-09-22 08:16:00,
2013-09-22 01:21:00,62.1,58.2,29.87,East,97,0.0,1.0,87,0.00,,---,0.00,VWS V14.01,2013-09-22 08:21:00,
2013-09-22 01:26:00,62.1,58.2,29.87,East,97,0.0,1.0,87,0.00,,---,0.00,VWS V14.01,2013-09-22 08:26:00,
2013-09-22 01:31:00,62.1,58.2,29.87,East,97,0.0,0.0,87,0.00,,---,0.00,VWS V14.01,2013-09-22 08:31:00,
2013-09-22 01:36:00,62.1,58.2,29.86,East,97,0.0,0.0,87,0.00,,---,0.00,VWS V14.01,2013-09-22 08:36:00,
2013-09-22 01:41:00,62.1,58.2,29.86,East,97,0.0,1.0,87,0.00,,---,0.00,VWS V14.01,2013-09-22 08:41:00,
2013-09-22 01:46:00,62.1,58.2,29.87,East,97,0.0,1.0,87,0.00,,---,0.00,VWS V14.01,2013-09-22 08:46:00,
2013-09-22 01:51:00,62.1,58.2,29.87,East,97,0.0,1.0,87,0.00,,---,0.00,VWS V14.01,2013-09-22 08:51:00,
2013-09-22 01:56:00,62.1,58.2,29.87,East,97,0.0,1.0,87,0.00,,---,0.00,VWS V14.01,2013-09-22 08:56:00,
2013-09-22 02:01:00,62.1,58.2,29.87,East,97,0.0,0.0,87,0.00,,---,0.00,VWS V14.01,2013-09-22 09:01:00,
2013-09-22 02:06:00,62.1,58.2,29.86,East,97,0.0,0.0,87,0.00,,---,0.00,VWS V14.01,2013-09-22 09:06:00,
2013-09-22 02:11:00,62.0,58.1,29.86,East,97,0.0,1.0,87,0.00,,---,0.00,VWS V14.01,2013-09-22 09:11:00,
2013-09-22 02:16:00,62.0,58.1,29.86,East,97,0.0,1.0,87,0.00,,---,0.00,VWS V14.01,2013-09-22 09:16:00,
2013-09-22 02:21:00,62.0,58.1,29.86,East,97,0.0,1.0,87,0.00,,---,0.00,VWS V14.01,2013-09-22 09:21:00,
2013-09-22 02:26:00,61.9,58.0,29.86,East,97,0.0,1.0,87,0.00,,---,0.00,VWS V14.01,2013-09-22 09:26:00,
2013-09-22 02:31:00,61.9,58.0,29.86,East,97,0.0,0.0,87,0.00,,---,0.00,VWS V14.01,2013-09-22 09:31:00,
2013-09-22 02:36:00,61.8,57.9,29.86,East,97,0.0,0.0,87,0.00,,---,0.00,VWS V14.01,2013-09-22 09:36:00,
2013-09-22 02:41:00,61.8,57.9,29.86,East,97,0.0,0.0,87,0.00,,---,0.00,VWS V14.01,2013-09-22 09:41:00,
2013-09-22 02:46:00,61.8,57.9,29.86,East,97,0.0,1.0,87,0.00,,---,0.00,VWS V14.01,2013-09-22 09:46:00,
2013-09-22 02:51:00,61.8,58.2,29.86,ENE,59,0.0,3.0,88,0.00,,---,0.00,VWS V14.01,2013-09-22 09:51:00,
2013-09-22 02:56:00,61.8,58.2,29.86,ESE,116,0.0,4.0,88,0.00,,---,0.00,VWS V14.01,2013-09-22 09:56:00,
2013-09-22 03:01:00,61.9,58.3,29.85,ESE,115,0.0,1.0,88,0.00,,---,0.00,VWS V14.01,2013-09-22 10:01:00,
2013-09-22 03:06:00,61.9,58.3,29.85,ESE,111,0.0,4.0,88,0.00,,---,0.00,VWS V14.01,2013-09-22 10:06:00,
2013-09-22 03:11:00,61.9,58.3,29.85,East,96,0.0,4.0,88,0.00,,---,0.00,VWS V14.01,2013-09-22 10:11:00,
2013-09-22 03:16:00,61.8,58.2,29.85,ESE,120,0.0,4.0,88,0.00,,---,0.00,VWS V14.01,2013-09-22 10:16:00,
2013-09-22 03:21:00,61.8,58.5,29.85,East,101,0.0,4.0,89,0.00,,---,0.00,VWS V14.01,2013-09-22 10:21:00,
2013-09-22 03:26:00,61.6,58.3,29.85,ESE,111,2.0,5.0,89,0.00,,---,0.00,VWS V14.01,2013-09-22 10:26:00,
2013-09-22 04:46:00,61.6,58.3,29.85,ESE,111,0.0,0.0,89,0.00,,---,0.00,VWS V14.01,2013-09-22 11:46:00,
2013-09-22 04:51:00,59.2,56.9,29.86,East,92,0.0,0.0,92,0.00,,---,0.00,VWS V14.01,2013-09-22 11:51:00,
2013-09-22 04:56:00,59.3,57.0,29.86,East,91,0.0,1.0,92,0.00,,---,0.00,VWS V14.01,2013-09-22 11:56:00,
2013-09-22 05:01:00,59.2,56.9,29.86,East,91,0.0,0.0,92,0.00,,---,0.00,VWS V14.01,2013-09-22 12:01:00,
2013-09-22 05:06:00,59.3,57.0,29.86,East,91,0.0,0.0,92,0.00,,---,0.00,VWS V14.01,2013-09-22 12:06:00,
2013-09-22 05:11:00,59.1,56.8,29.86,East,91,0.0,0.0,92,0.00,,---,0.00,VWS V14.01,2013-09-22 12:11:00,
2013-09-22 05:16:00,59.0,56.7,29.86,East,91,0.0,0.0,92,0.00,,---,0.00,VWS V14.01,2013-09-22 12:16:00,
2013-09-22 05:21:00,58.9,56.6,29.86,East,91,0.0,0.0,92,0.00,,---,0.00,VWS V14.01,2013-09-22 12:21:00,
2013-09-22 05:26:00,58.8,56.5,29.85,East,91,0.0,1.0,92,0.00,,---,0.00,VWS V14.01,2013-09-22 12:26:00,
2013-09-22 05:31:00,58.8,56.5,29.86,East,91,0.0,0.0,92,0.00,,---,0.00,VWS V14.01,2013-09-22 12:31:00,
2013-09-22 05:36:00,58.7,56.4,29.86,East,91,0.0,0.0,92,0.00,,---,0.00,VWS V14.01,2013-09-22 12:36:00,
2013-09-22 05:41:00,58.7,56.7,29.85,East,91,0.0,0.0,93,0.00,,---,0.00,VWS V14.01,2013-09-22 12:41:00,
2013-09-22 05:46:00,58.7,56.7,29.85,East,91,0.0,1.0,93,0.00,,---,0.00,VWS V14.01,2013-09-22 12:46:00,
2013-09-22 05:51:00,58.7,56.7,29.85,East,91,0.0,1.0,93,0.00,,---,0.00,VWS V14.01,2013-09-22 12:51:00,
2013-09-22 05:56:00,58.7,56.7,29.86,East,91,0.0,1.0,93,0.00,,---,0.00,VWS V14.01,2013-09-22 12:56:00,
2013-09-22 06:01:00,58.6,56.6,29.86,East,91,0.0,0.0,93,0.00,,---,0.00,VWS V14.01,2013-09-22 13:01:00,
2013-09-22 06:06:00,58.4,56.4,29.86,East,91,0.0,0.0,93,0.00,,---,0.00,VWS V14.01,2013-09-22 13:06:00,
2013-09-22 06:11:00,58.3,56.3,29.86,East,91,0.0,0.0,93,0.00,,---,0.00,VWS V14.01,2013-09-22 13:11:00,
2013-09-22 06:16:00,58.2,56.2,29.86,East,91,0.0,0.0,93,0.00,,---,0.00,VWS V14.01,2013-09-22 13:16:00,
2013-09-22 06:21:00,58.1,56.1,29.86,East,91,0.0,0.0,93,0.00,,---,0.00,VWS V14.01,2013-09-22 13:21:00,
2013-09-22 06:26:00,58.1,56.1,29.87,East,91,0.0,0.0,93,0.00,,---,0.00,VWS V14.01,2013-09-22 13:26:00,
2013-09-22 06:31:00,58.2,56.2,29.87,East,91,0.0,0.0,93,0.00,,---,0.00,VWS V14.01,2013-09-22 13:31:00,
2013-09-22 06:36:00,58.2,56.2,29.87,East,91,0.0,0.0,93,0.00,,---,0.00,VWS V14.01,2013-09-22 13:36:00,
2013-09-22 06:41:00,58.0,56.0,29.87,East,91,0.0,0.0,93,0.00,,---,0.00,VWS V14.01,2013-09-22 13:41:00,
2013-09-22 06:46:00,58.1,56.4,29.87,North,5,0.0,2.0,94,0.00,,---,0.00,VWS V14.01,2013-09-22 13:46:00,
2013-09-22 06:51:00,58.2,56.5,29.87,North,5,0.0,3.0,94,0.00,,---,0.00,VWS V14.01,2013-09-22 13:51:00,
2013-09-22 06:56:00,58.3,56.6,29.87,North,5,0.0,3.0,94,0.00,,---,0.00,VWS V14.01,2013-09-22 13:56:00,
2013-09-22 07:01:00,58.4,56.4,29.87,North,5,0.0,0.0,93,0.00,,---,0.00,VWS V14.01,2013-09-22 14:01:00,
2013-09-22 07:06:00,58.5,56.8,29.87,North,5,0.0,0.0,94,0.00,,---,0.00,VWS V14.01,2013-09-22 14:06:00,
2013-09-22 07:11:00,58.8,57.1,29.88,North,5,0.0,0.0,94,0.00,,---,0.00,VWS V14.01,2013-09-22 14:11:00,
2013-09-22 07:16:00,58.9,56.9,29.88,North,5,0.0,0.0,93,0.00,,---,0.00,VWS V14.01,2013-09-22 14:16:00,
2013-09-22 07:21:00,58.9,56.9,29.88,North,5,0.0,0.0,93,0.00,,---,0.00,VWS V14.01,2013-09-22 14:21:00,
2013-09-22 07:26:00,59.2,57.2,29.88,North,5,0.0,0.0,93,0.00,,---,0.00,VWS V14.01,2013-09-22 14:26:00,
2013-09-22 07:31:00,59.6,57.6,29.88,North,5,0.0,0.0,93,0.00,,---,0.00,VWS V14.01,2013-09-22 14:31:00,
2013-09-22 07:36:00,59.8,57.5,29.89,North,5,0.0,0.0,92,0.00,,---,0.00,VWS V14.01,2013-09-22 14:36:00,
2013-09-22 07:41:00,60.2,57.9,29.89,North,5,0.0,0.0,92,0.00,,---,0.00,VWS V14.01,2013-09-22 14:41:00,
2013-09-22 07:46:00,60.5,57.9,29.89,North,5,0.0,1.0,91,0.00,,---,0.00,VWS V14.01,2013-09-22 14:46:00,
2013-09-22 07:51:00,61.0,58.4,29.89,North,5,0.0,1.0,91,0.00,,---,0.00,VWS V14.01,2013-09-22 14:51:00,
2013-09-22 07:56:00,61.5,58.5,29.89,North,5,0.0,1.0,90,0.00,,---,0.00,VWS V14.01,2013-09-22 14:56:00,
2013-09-22 08:01:00,62.1,58.8,29.89,North,5,0.0,1.0,89,0.00,,---,0.00,VWS V14.01,2013-09-22 15:01:00,
2013-09-22 08:06:00,62.6,59.0,29.89,North,5,0.0,1.0,88,0.00,,---,0.00,VWS V14.01,2013-09-22 15:06:00,
2013-09-22 08:11:00,63.2,59.3,29.89,North,5,0.0,1.0,87,0.00,,---,0.00,VWS V14.01,2013-09-22 15:11:00,
2013-09-22 08:16:00,63.7,58.8,29.89,ESE,113,0.0,4.0,84,0.00,,---,0.00,VWS V14.01,2013-09-22 15:16:00,
2013-09-22 08:21:00,63.9,59.3,29.89,East,98,0.0,6.0,85,0.00,,---,0.00,VWS V14.01,2013-09-22 15:21:00,
2013-09-22 08:26:00,64.5,59.2,29.89,East,94,2.0,6.0,83,0.00,,---,0.00,VWS V14.01,2013-09-22 15:26:00,
2013-09-22 08:31:00,64.5,58.9,29.89,ESE,118,0.0,9.0,82,0.00,,---,0.00,VWS V14.01,2013-09-22 15:31:00,
2013-09-22 08:36:00,64.7,59.1,29.89,SE,126,2.0,9.0,82,0.00,,---,0.00,VWS V14.01,2013-09-22 15:36:00,
2013-09-22 08:41:00,65.0,59.0,29.89,ENE,76,0.0,9.0,81,0.00,,---,0.00,VWS V14.01,2013-09-22 15:41:00,
2013-09-22 08:46:00,65.2,58.9,29.89,ESE,117,0.0,9.0,80,0.00,,---,0.00,VWS V14.01,2013-09-22 15:46:00,
2013-09-22 08:51:00,65.6,58.9,29.90,East,94,2.0,9.0,79,0.00,,---,0.00,VWS V14.01,2013-09-22 15:51:00,
2013-09-22 08:56:00,66.1,59.4,29.90,East,96,4.0,9.0,79,0.00,,---,0.00,VWS V14.01,2013-09-22 15:56:00,
2013-09-22 09:01:00,66.1,59.0,29.90,ESE,119,0.0,6.0,78,0.00,,---,0.00,VWS V14.01,2013-09-22 16:01:00,
2013-09-22 09:06:00,66.3,58.9,29.90,SE,125,0.0,6.0,77,0.00,,---,0.00,VWS V14.01,2013-09-22 16:06:00,
2013-09-22 09:11:00,66.3,58.5,29.90,ESE,103,0.0,6.0,76,0.00,,---,0.00,VWS V14.01,2013-09-22 16:11:00,
2013-09-22 09:16:00,66.6,58.8,29.90,NNE,15,2.0,6.0,76,0.00,,---,0.00,VWS V14.01,2013-09-22 16:16:00,
2013-09-22 09:21:00,67.2,58.6,29.90,ENE,60,1.0,6.0,74,0.00,,---,0.00,VWS V14.01,2013-09-22 16:21:00,
2013-09-22 09:26:00,67.1,58.5,29.90,ESE,121,2.0,6.0,74,0.00,,---,0.00,VWS V14.01,2013-09-22 16:26:00,
2013-09-22 09:31:00,67.2,59.0,29.90,ESE,121,0.0,5.0,75,0.00,,---,0.00,VWS V14.01,2013-09-22 16:31:00,
2013-09-22 09:36:00,67.2,58.6,29.90,SE,133,2.0,7.0,74,0.00,,---,0.00,VWS V14.01,2013-09-22 16:36:00,
2013-09-22 09:41:00,67.1,58.5,29.90,SE,139,1.0,7.0,74,0.00,,---,0.00,VWS V14.01,2013-09-22 16:41:00,
2013-09-22 09:46:00,67.8,59.2,29.90,ESE,105,0.0,7.0,74,0.00,,---,0.00,VWS V14.01,2013-09-22 16:46:00,
2013-09-22 09:51:00,68.1,58.3,29.90,SSW,201,0.0,7.0,71,0.00,,---,0.00,VWS V14.01,2013-09-22 16:51:00,
2013-09-22 09:56:00,67.7,58.4,29.90,ESE,119,0.0,7.0,72,0.00,,---,0.00,VWS V14.01,2013-09-22 16:56:00,
2013-09-22 10:01:00,67.4,58.5,29.90,SE,138,0.0,2.0,73,0.00,,---,0.00,VWS V14.01,2013-09-22 17:01:00,
2013-09-22 10:06:00,67.6,58.3,29.90,South,175,4.0,5.0,72,0.00,,---,0.00,VWS V14.01,2013-09-22 17:06:00,
2013-09-22 10:11:00,68.0,58.3,29.90,SE,124,5.0,5.0,71,0.00,,---,0.00,VWS V14.01,2013-09-22 17:11:00,
2013-09-22 10:16:00,68.4,58.2,29.91,East,101,0.0,5.0,70,0.00,,---,0.00,VWS V14.01,2013-09-22 17:16:00,
2013-09-22 10:21:00,68.3,58.2,29.90,ESE,105,0.0,5.0,70,0.00,,---,0.00,VWS V14.01,2013-09-22 17:21:00,
2013-09-22 10:26:00,68.8,58.6,29.91,ESE,105,0.0,5.0,70,0.00,,---,0.00,VWS V14.01,2013-09-22 17:26:00,
2013-09-22 10:31:00,69.1,58.5,29.91,ESE,107,0.0,2.0,69,0.00,,---,0.00,VWS V14.01,2013-09-22 17:31:00,
2013-09-22 10:36:00,68.8,58.2,29.91,ESE,119,0.0,4.0,69,0.00,,---,0.00,VWS V14.01,2013-09-22 17:36:00,
2013-09-22 10:41:00,68.7,58.1,29.91,ENE,77,0.0,4.0,69,0.00,,---,0.00,VWS V14.01,2013-09-22 17:41:00,
2013-09-22 10:46:00,68.6,58.0,29.91,ESE,118,0.0,4.0,69,0.00,,---,0.00,VWS V14.01,2013-09-22 17:46:00,
2013-09-22 10:51:00,68.2,58.0,29.91,SE,136,0.0,4.0,70,0.00,,---,0.00,VWS V14.01,2013-09-22 17:51:00,
2013-09-22 10:56:00,68.3,57.8,29.90,ESE,105,0.0,4.0,69,0.00,,---,0.00,VWS V14.01,2013-09-22 17:56:00,
2013-09-22 11:01:00,68.9,57.9,29.90,SE,128,1.0,7.0,68,0.00,,---,0.00,VWS V14.01,2013-09-22 18:01:00,
2013-09-22 11:06:00,69.7,57.8,29.90,SSE,158,0.0,7.0,66,0.00,,---,0.00,VWS V14.01,2013-09-22 18:06:00,
2013-09-22 11:11:00,69.9,57.2,29.90,SE,129,0.0,7.0,64,0.00,,---,0.00,VWS V14.01,2013-09-22 18:11:00,
2013-09-22 11:16:00,70.3,56.7,29.91,SSE,156,0.0,7.0,62,0.00,,---,0.00,VWS V14.01,2013-09-22 18:16:00,
2013-09-22 11:21:00,70.4,56.3,29.90,West,261,0.0,7.0,61,0.00,,---,0.00,VWS V14.01,2013-09-22 18:21:00,
2013-09-22 11:26:00,71.0,56.4,29.90,ESE,104,1.0,9.0,60,0.00,,---,0.00,VWS V14.01,2013-09-22 18:26:00,
2013-09-22 11:31:00,71.8,56.7,29.90,SE,146,0.0,8.0,59,0.00,,---,0.00,VWS V14.01,2013-09-22 18:31:00,
2013-09-22 11:36:00,72.9,57.8,29.90,SE,128,0.0,8.0,59,0.00,,---,0.00,VWS V14.01,2013-09-22 18:36:00,
2013-09-22 11:41:00,73.7,57.5,29.90,ESE,117,2.0,8.0,57,0.00,,---,0.00,VWS V14.01,2013-09-22 18:41:00,
2013-09-22 11:46:00,74.1,56.4,29.90,SSE,150,5.0,8.0,54,0.00,,---,0.00,VWS V14.01,2013-09-22 18:46:00,
2013-09-22 11:51:00,73.6,54.9,29.90,SW,223,2.0,8.0,52,0.00,,---,0.00,VWS V14.01,2013-09-22 18:51:00,
2013-09-22 11:56:00,73.5,55.9,29.90,NW,325,0.0,8.0,54,0.00,,---,0.00,VWS V14.01,2013-09-22 18:56:00,
2013-09-22 12:01:00,73.6,56.0,29.90,SSE,164,1.0,2.0,54,0.00,,---,0.00,VWS V14.01,2013-09-22 19:01:00,
2013-09-22 12:06:00,73.7,56.0,29.90,WNW,291,2.0,7.0,54,0.00,,---,0.00,VWS V14.01,2013-09-22 19:06:00,
2013-09-22 12:11:00,73.4,54.7,29.90,SE,135,0.0,7.0,52,0.00,,---,0.00,VWS V14.01,2013-09-22 19:11:00,
2013-09-22 12:16:00,73.3,55.7,29.89,ENE,68,0.0,7.0,54,0.00,,---,0.00,VWS V14.01,2013-09-22 19:16:00,
2013-09-22 12:21:00,74.7,56.5,29.89,NNE,17,4.0,7.0,53,0.00,,---,0.00,VWS V14.01,2013-09-22 19:21:00,
2013-09-22 12:26:00,75.0,55.7,29.89,SSW,198,0.0,7.0,51,0.00,,---,0.00,VWS V14.01,2013-09-22 19:26:00,
2013-09-22 12:31:00,74.4,56.2,29.89,East,84,0.0,1.0,53,0.00,,---,0.00,VWS V14.01,2013-09-22 19:31:00,
2013-09-22 12:36:00,74.9,54.5,29.89,ESE,112,2.0,7.0,49,0.00,,---,0.00,VWS V14.01,2013-09-22 19:36:00,
2013-09-22 12:41:00,74.8,54.9,29.88,South,172,1.0,7.0,50,0.00,,---,0.00,VWS V14.01,2013-09-22 19:41:00,
2013-09-22 12:46:00,74.9,54.5,29.88,WSW,258,1.0,9.0,49,0.00,,---,0.00,VWS V14.01,2013-09-22 19:46:00,
2013-09-22 12:51:00,75.4,53.8,29.88,SE,140,0.0,9.0,47,0.00,,---,0.00,VWS V14.01,2013-09-22 19:51:00,
2013-09-22 12:56:00,75.7,54.1,29.88,SE,145,2.0,9.0,47,0.00,,---,0.00,VWS V14.01,2013-09-22 19:56:00,
2013-09-22 13:01:00,77.1,54.2,29.88,NE,47,0.0,3.0,45,0.00,,---,0.00,VWS V14.01,2013-09-22 20:01:00,
2013-09-22 13:06:00,77.5,53.9,29.88,NW,307,1.0,5.0,44,0.00,,---,0.00,VWS V14.01,2013-09-22 20:06:00,
2013-09-22 13:11:00,77.4,54.4,29.87,SSE,167,4.0,6.0,45,0.00,,---,0.00,VWS V14.01,2013-09-22 20:11:00,
2013-09-22 13:16:00,77.3,53.7,29.87,ESE,114,0.0,7.0,44,0.00,,---,0.00,VWS V14.01,2013-09-22 20:16:00,
2013-09-22 13:21:00,76.7,52.5,29.87,East,92,1.0,7.0,43,0.00,,---,0.00,VWS V14.01,2013-09-22 20:21:00,
2013-09-22 13:26:00,76.9,53.3,29.87,SSE,167,0.0,7.0,44,0.00,,---,0.00,VWS V14.01,2013-09-22 20:26:00,
2013-09-22 13:31:00,77.2,53.6,29.87,North,11,2.0,4.0,44,0.00,,---,0.00,VWS V14.01,2013-09-22 20:31:00,
2013-09-22 13:36:00,77.9,55.5,29.86,West,277,3.0,5.0,46,0.00,,---,0.00,VWS V14.01,2013-09-22 20:36:00,
2013-09-22 13:41:00,77.8,56.0,29.86,SSE,165,1.0,10.0,47,0.00,,---,0.00,VWS V14.01,2013-09-22 20:41:00,
2013-09-22 13:46:00,77.2,56.0,29.86,SSE,166,1.0,10.0,48,0.00,,---,0.00,VWS V14.01,2013-09-22 20:46:00,
2013-09-22 13:51:00,77.9,56.1,29.85,WSW,254,0.0,10.0,47,0.00,,---,0.00,VWS V14.01,2013-09-22 20:51:00,
2013-09-22 13:56:00,78.0,55.0,29.86,SSE,167,0.0,10.0,45,0.00,,---,0.00,VWS V14.01,2013-09-22 20:56:00,
2013-09-22 14:01:00,78.2,56.3,29.85,South,186,0.0,5.0,47,0.00,,---,0.00,VWS V14.01,2013-09-22 21:01:00,
2013-09-22 14:06:00,78.7,56.2,29.85,South,186,4.0,5.0,46,0.00,,---,0.00,VWS V14.01,2013-09-22 21:06:00,
2013-09-22 14:11:00,78.5,56.6,29.85,SW,234,1.0,5.0,47,0.00,,---,0.00,VWS V14.01,2013-09-22 21:11:00,
2013-09-22 14:16:00,78.1,56.8,29.85,SSW,199,3.0,11.0,48,0.00,,---,0.00,VWS V14.01,2013-09-22 21:16:00,
2013-09-22 14:21:00,78.2,57.5,29.85,ESE,114,0.0,11.0,49,0.00,,---,0.00,VWS V14.01,2013-09-22 21:21:00,
2013-09-22 14:26:00,78.9,57.6,29.85,ENE,73,0.0,11.0,48,0.00,,---,0.00,VWS V14.01,2013-09-22 21:26:00,
2013-09-22 14:31:00,79.5,58.1,29.85,South,186,0.0,7.0,48,0.00,,---,0.00,VWS V14.01,2013-09-22 21:31:00,
2013-09-22 14:36:00,78.8,57.5,29.85,WSW,244,0.0,7.0,48,0.00,,---,0.00,VWS V14.01,2013-09-22 21:36:00,
2013-09-22 14:41:00,78.5,57.2,29.85,North,5,1.0,7.0,48,0.00,,---,0.00,VWS V14.01,2013-09-22 21:41:00,
2013-09-22 14:46:00,78.4,57.1,29.84,NW,308,1.0,9.0,48,0.00,,---,0.00,VWS V14.01,2013-09-22 21:46:00,
2013-09-22 14:51:00,78.4,56.5,29.85,SSW,202,5.0,9.0,47,0.00,,---,0.00,VWS V14.01,2013-09-22 21:51:00,
2013-09-22 14:56:00,78.1,56.2,29.84,SSW,195,1.0,9.0,47,0.00,,---,0.00,VWS V14.01,2013-09-22 21:56:00,
2013-09-22 15:01:00,78.1,55.7,29.84,SW,214,3.0,7.0,46,0.00,,---,0.00,VWS V14.01,2013-09-22 22:01:00,
2013-09-22 15:06:00,77.5,55.7,29.84,ESE,117,0.0,11.0,47,0.00,,---,0.00,VWS V14.01,2013-09-22 22:06:00,
2013-09-22 15:11:00,76.5,54.8,29.84,South,175,0.0,11.0,47,0.00,,---,0.00,VWS V14.01,2013-09-22 22:11:00,
2013-09-22 15:16:00,77.1,55.3,29.84,SE,142,0.0,11.0,47,0.00,,---,0.00,VWS V14.01,2013-09-22 22:16:00,
2013-09-22 15:21:00,77.4,54.4,29.84,WNW,294,0.0,11.0,45,0.00,,---,0.00,VWS V14.01,2013-09-22 22:21:00,
2013-09-22 15:26:00,77.4,55.0,29.83,SW,215,1.0,11.0,46,0.00,,---,0.00,VWS V14.01,2013-09-22 22:26:00,
2013-09-22 15:31:00,77.6,54.6,29.83,NW,321,1.0,4.0,45,0.00,,---,0.00,VWS V14.01,2013-09-22 22:31:00,
2013-09-22 15:36:00,77.3,54.3,29.83,WSW,240,0.0,8.0,45,0.00,,---,0.00,VWS V14.01,2013-09-22 22:36:00,
2013-09-22 15:41:00,77.1,54.8,29.84,SSW,211,1.0,8.0,46,0.00,,---,0.00,VWS V14.01,2013-09-22 22:41:00,
2013-09-22 15:46:00,76.9,54.6,29.83,South,175,0.0,8.0,46,0.00,,---,0.00,VWS V14.01,2013-09-22 22:46:00,
2013-09-22 15:51:00,77.3,54.9,29.83,ESE,121,0.0,8.0,46,0.00,,---,0.00,VWS V14.01,2013-09-22 22:51:00,
2013-09-22 15:56:00,77.8,54.8,29.83,SW,217,0.0,8.0,45,0.00,,---,0.00,VWS V14.01,2013-09-22 22:56:00,
2013-09-22 16:01:00,77.4,54.4,29.84,WNW,302,2.0,7.0,45,0.00,,---,0.00,VWS V14.01,2013-09-22 23:01:00,
2013-09-22 16:06:00,77.3,54.3,29.84,West,262,4.0,7.0,45,0.00,,---,0.00,VWS V14.01,2013-09-22 23:06:00,
2013-09-22 16:11:00,77.1,54.2,29.83,SSW,193,0.0,7.0,45,0.00,,---,0.00,VWS V14.01,2013-09-22 23:11:00,
2013-09-22 16:16:00,77.1,54.8,29.84,NNW,344,0.0,8.0,46,0.00,,---,0.00,VWS V14.01,2013-09-22 23:16:00,
2013-09-22 16:21:00,76.9,54.6,29.84,South,184,0.0,8.0,46,0.00,,---,0.00,VWS V14.01,2013-09-22 23:21:00,
2013-09-22 16:26:00,76.8,54.5,29.84,WNW,286,3.0,8.0,46,0.00,,---,0.00,VWS V14.01,2013-09-22 23:26:00,
2013-09-22 16:31:00,76.3,54.6,29.84,SW,233,3.0,5.0,47,0.00,,---,0.00,VWS V14.01,2013-09-22 23:31:00,
2013-09-22 16:36:00,75.9,54.2,29.84,SSW,198,2.0,8.0,47,0.00,,---,0.00,VWS V14.01,2013-09-22 23:36:00,
2013-09-22 16:41:00,75.6,54.0,29.84,SSW,199,0.0,8.0,47,0.00,,---,0.00,VWS V14.01,2013-09-22 23:41:00,
2013-09-22 16:46:00,75.5,54.5,29.84,WNW,301,0.0,8.0,48,0.00,,---,0.00,VWS V14.01,2013-09-22 23:46:00,
2013-09-22 16:51:00,75.8,54.2,29.84,SSW,211,0.0,8.0,47,0.00,,---,0.00,VWS V14.01,2013-09-22 23:51:00,
2013-09-22 16:56:00,75.6,53.4,29.84,SW,225,0.0,8.0,46,0.00,,---,0.00,VWS V14.01,2013-09-22 23:56:00,
2013-09-22 17:01:00,74.9,53.3,29.84,West,281,0.0,7.0,47,0.00,,---,0.00,VWS V14.01,2013-09-23 00:01:00,
2013-09-22 17:06:00,74.7,53.2,29.84,West,269,0.0,7.0,47,0.00,,---,0.00,VWS V14.01,2013-09-23 00:06:00,
2013-09-22 17:11:00,74.3,52.8,29.84,NNE,13,0.0,7.0,47,0.00,,---,0.00,VWS V14.01,2013-09-23 00:11:00,
2013-09-22 17:16:00,73.7,51.7,29.84,SE,132,0.0,8.0,46,0.00,,---,0.00,VWS V14.01,2013-09-23 00:16:00,
2013-09-22 17:21:00,73.1,51.1,29.84,WNW,285,0.0,8.0,46,0.00,,---,0.00,VWS V14.01,2013-09-23 00:21:00,
2013-09-22 17:26:00,72.6,51.2,29.84,WNW,292,0.0,8.0,47,0.00,,---,0.00,VWS V14.01,2013-09-23 00:26:00,
2013-09-22 17:31:00,72.1,50.8,29.84,WSW,252,7.0,8.0,47,0.00,,---,0.00,VWS V14.01,2013-09-23 00:31:00,
2013-09-22 17:36:00,71.8,50.5,29.84,NNW,336,0.0,8.0,47,0.00,,---,0.00,VWS V14.01,2013-09-23 00:36:00,
2013-09-22 17:41:00,71.7,50.4,29.84,West,266,0.0,8.0,47,0.00,,---,0.00,VWS V14.01,2013-09-23 00:41:00,
2013-09-22 17:46:00,71.6,50.3,29.84,West,272,0.0,8.0,47,0.00,,---,0.00,VWS V14.01,2013-09-23 00:46:00,
2013-09-22 17:51:00,71.5,49.7,29.84,NW,320,0.0,8.0,46,0.00,,---,0.00,VWS V14.01,2013-09-23 00:51:00,
2013-09-22 17:56:00,71.4,49.6,29.84,WSW,239,3.0,8.0,46,0.00,,---,0.00,VWS V14.01,2013-09-23 00:56:00,
2013-09-22 18:01:00,71.2,50.0,29.84,NNW,343,0.0,3.0,47,0.00,,---,0.00,VWS V14.01,2013-09-23 01:01:00,
2013-09-22 18:06:00,70.9,49.1,29.84,West,262,0.0,3.0,46,0.00,,---,0.00,VWS V14.01,2013-09-23 01:06:00,
2013-09-22 18:11:00,70.7,48.9,29.84,WSW,250,0.0,3.0,46,0.00,,---,0.00,VWS V14.01,2013-09-23 01:11:00,
2013-09-22 18:16:00,70.6,49.4,29.84,West,273,0.0,3.0,47,0.00,,---,0.00,VWS V14.01,2013-09-23 01:16:00,
2013-09-22 18:21:00,70.4,48.7,29.84,West,263,0.0,3.0,46,0.00,,---,0.00,VWS V14.01,2013-09-23 01:21:00,
2013-09-22 18:26:00,70.2,48.5,29.84,SW,232,0.0,3.0,46,0.00,,---,0.00,VWS V14.01,2013-09-23 01:26:00,
2013-09-22 18:31:00,70.1,49.0,29.84,SSW,204,0.0,1.0,47,0.00,,---,0.00,VWS V14.01,2013-09-23 01:31:00,
2013-09-22 18:36:00,69.9,48.8,29.84,SSW,213,0.0,1.0,47,0.00,,---,0.00,VWS V14.01,2013-09-23 01:36:00,
2013-09-22 18:41:00,69.7,48.6,29.84,SSW,212,0.0,1.0,47,0.00,,---,0.00,VWS V14.01,2013-09-23 01:41:00,
2013-09-22 18:46:00,69.5,48.4,29.84,SSW,213,0.0,1.0,47,0.00,,---,0.00,VWS V14.01,2013-09-23 01:46:00,
2013-09-22 18:51:00,69.3,48.8,29.84,SSW,213,0.0,1.0,48,0.00,,---,0.00,VWS V14.01,2013-09-23 01:51:00,
2013-09-22 18:56:00,69.0,48.5,29.84,SSW,213,0.0,1.0,48,0.00,,---,0.00,VWS V14.01,2013-09-23 01:56:00,
2013-09-22 19:01:00,68.8,48.3,29.84,SSW,213,0.0,0.0,48,0.00,,---,0.00,VWS V14.01,2013-09-23 02:01:00,
2013-09-22 19:06:00,68.7,48.8,29.84,SSW,212,0.0,0.0,49,0.00,,---,0.00,VWS V14.01,2013-09-23 02:06:00,
2013-09-22 19:11:00,68.5,48.6,29.84,SSW,213,0.0,0.0,49,0.00,,---,0.00,VWS V14.01,2013-09-23 02:11:00,
2013-09-22 19:16:00,68.3,49.0,29.84,SSW,213,0.0,1.0,50,0.00,,---,0.00,VWS V14.01,2013-09-23 02:16:00,
2013-09-22 19:21:00,68.0,48.7,29.85,SSW,213,0.0,1.0,50,0.00,,---,0.00,VWS V14.01,2013-09-23 02:21:00,
2013-09-22 19:26:00,67.8,49.0,29.85,SSW,213,0.0,1.0,51,0.00,,---,0.00,VWS V14.01,2013-09-23 02:26:00,
2013-09-22 19:31:00,67.6,49.4,29.85,SSW,213,0.0,0.0,52,0.00,,---,0.00,VWS V14.01,2013-09-23 02:31:00,
2013-09-22 19:36:00,67.3,49.6,29.85,SSW,212,0.0,0.0,53,0.00,,---,0.00,VWS V14.01,2013-09-23 02:36:00,
2013-09-22 19:41:00,67.1,49.9,29.85,SSW,212,0.0,0.0,54,0.00,,---,0.00,VWS V14.01,2013-09-23 02:41:00,
2013-09-22 19:46:00,66.9,50.2,29.86,SSW,213,0.0,1.0,55,0.00,,---,0.00,VWS V14.01,2013-09-23 02:46:00,
2013-09-22 19:51:00,66.7,50.0,29.86,SSW,213,0.0,1.0,55,0.00,,---,0.00,VWS V14.01,2013-09-23 02:51:00,
2013-09-22 19:56:00,66.4,50.7,29.86,SSW,213,0.0,1.0,57,0.00,,---,0.00,VWS V14.01,2013-09-23 02:56:00,
2013-09-22 20:01:00,66.2,51.0,29.86,SSW,213,0.0,0.0,58,0.00,,---,0.00,VWS V14.01,2013-09-23 03:01:00,
2013-09-22 20:06:00,65.8,50.2,29.86,SSW,213,0.0,0.0,57,0.00,,---,0.00,VWS V14.01,2013-09-23 03:06:00,
2013-09-22 20:11:00,65.5,51.7,29.87,SSW,213,0.0,0.0,61,0.00,,---,0.00,VWS V14.01,2013-09-23 03:11:00,
2013-09-22 20:16:00,65.1,50.9,29.87,SSW,213,0.0,0.0,60,0.00,,---,0.00,VWS V14.01,2013-09-23 03:16:00,
2013-09-22 20:21:00,64.7,51.4,29.87,SSW,213,0.0,0.0,62,0.00,,---,0.00,VWS V14.01,2013-09-23 03:21:00,
2013-09-22 20:26:00,64.3,51.5,29.87,SSW,213,0.0,0.0,63,0.00,,---,0.00,VWS V14.01,2013-09-23 03:26:00,
2013-09-22 20:31:00,63.9,51.1,29.87,SSW,213,0.0,0.0,63,0.00,,---,0.00,VWS V14.01,2013-09-23 03:31:00,
2013-09-22 20:36:00,63.5,51.1,29.88,SSW,213,0.0,0.0,64,0.00,,---,0.00,VWS V14.01,2013-09-23 03:36:00,
2013-09-22 20:41:00,63.1,51.2,29.88,SSW,213,0.0,0.0,65,0.00,,---,0.00,VWS V14.01,2013-09-23 03:41:00,
2013-09-22 20:46:00,62.8,50.5,29.88,SSW,213,0.0,0.0,64,0.00,,---,0.00,VWS V14.01,2013-09-23 03:46:00,
2013-09-22 20:51:00,62.5,50.6,29.88,SSW,213,0.0,0.0,65,0.00,,---,0.00,VWS V14.01,2013-09-23 03:51:00,
2013-09-22 20:56:00,62.3,50.8,29.88,SSW,213,0.0,0.0,66,0.00,,---,0.00,VWS V14.01,2013-09-23 03:56:00,
2013-09-22 21:01:00,62.2,50.7,29.88,SSW,212,0.0,0.0,66,0.00,,---,0.00,VWS V14.01,2013-09-23 04:01:00,
2013-09-22 21:06:00,62.0,50.9,29.88,SSW,212,0.0,0.0,67,0.00,,---,0.00,VWS V14.01,2013-09-23 04:06:00,
2013-09-22 21:11:00,61.7,50.6,29.88,SSW,213,0.0,0.0,67,0.00,,---,0.00,VWS V14.01,2013-09-23 04:11:00,
2013-09-22 21:16:00,61.6,51.0,29.88,SSW,213,0.0,0.0,68,0.00,,---,0.00,VWS V14.01,2013-09-23 04:16:00,
2013-09-22 21:21:00,61.6,51.0,29.88,SSW,213,0.0,0.0,68,0.00,,---,0.00,VWS V14.01,2013-09-23 04:21:00,
2013-09-22 21:26:00,61.4,51.2,29.88,SSW,213,0.0,0.0,69,0.00,,---,0.00,VWS V14.01,2013-09-23 04:26:00,
2013-09-22 21:31:00,61.6,51.3,29.88,SSW,212,0.0,0.0,69,0.00,,---,0.00,VWS V14.01,2013-09-23 04:31:00,
2013-09-22 21:36:00,61.5,51.6,29.88,SSW,213,0.0,0.0,70,0.00,,---,0.00,VWS V14.01,2013-09-23 04:36:00,
2013-09-22 21:41:00,61.5,52.4,29.88,SSW,213,0.0,0.0,72,0.00,,---,0.00,VWS V14.01,2013-09-23 04:41:00,
2013-09-22 21:46:00,61.5,52.0,29.88,SSW,213,0.0,0.0,71,0.00,,---,0.00,VWS V14.01,2013-09-23 04:46:00,
2013-09-22 21:51:00,61.4,52.7,29.88,SSW,212,0.0,0.0,73,0.00,,---,0.00,VWS V14.01,2013-09-23 04:51:00,
2013-09-22 21:56:00,61.4,52.7,29.88,SSW,213,0.0,0.0,73,0.00,,---,0.00,VWS V14.01,2013-09-23 04:56:00,
2013-09-22 22:01:00,61.1,52.0,29.89,SSW,212,0.0,0.0,72,0.00,,---,0.00,VWS V14.01,2013-09-23 05:01:00,
2013-09-22 22:06:00,60.6,51.9,29.88,SSW,212,0.0,0.0,73,0.00,,---,0.00,VWS V14.01,2013-09-23 05:06:00,
2013-09-22 22:11:00,60.4,52.1,29.88,SSW,212,0.0,0.0,74,0.00,,---,0.00,VWS V14.01,2013-09-23 05:11:00,
2013-09-22 22:16:00,60.1,52.5,29.89,SSW,213,0.0,0.0,76,0.00,,---,0.00,VWS V14.01,2013-09-23 05:16:00,
2013-09-22 22:21:00,59.9,52.3,29.89,SSW,212,0.0,0.0,76,0.00,,---,0.00,VWS V14.01,2013-09-23 05:21:00,
2013-09-22 22:26:00,59.9,53.0,29.89,SSW,213,0.0,0.0,78,0.00,,---,0.00,VWS V14.01,2013-09-23 05:26:00,
2013-09-22 22:31:00,59.7,52.8,29.89,SSW,212,0.0,0.0,78,0.00,,---,0.00,VWS V14.01,2013-09-23 05:31:00,
2013-09-22 22:36:00,59.9,53.0,29.89,SSW,213,0.0,1.0,78,0.00,,---,0.00,VWS V14.01,2013-09-23 05:36:00,
2013-09-22 22:41:00,60.0,53.1,29.89,SSW,213,0.0,1.0,78,0.00,,---,0.00,VWS V14.01,2013-09-23 05:41:00,
2013-09-22 22:46:00,59.8,52.6,29.89,SSW,213,0.0,1.0,77,0.00,,---,0.00,VWS V14.01,2013-09-23 05:46:00,
2013-09-22 22:51:00,59.4,52.2,29.89,SSW,212,0.0,1.0,77,0.00,,---,0.00,VWS V14.01,2013-09-23 05:51:00,
2013-09-22 22:56:00,59.1,52.3,29.89,SSW,213,0.0,1.0,78,0.00,,---,0.00,VWS V14.01,2013-09-23 05:56:00,
2013-09-22 23:01:00,59.0,52.8,29.89,SSW,213,0.0,0.0,80,0.00,,---,0.00,VWS V14.01,2013-09-23 06:01:00,
2013-09-22 23:06:00,59.1,52.6,29.89,SSW,213,0.0,0.0,79,0.00,,---,0.00,VWS V14.01,2013-09-23 06:06:00,
2013-09-22 23:11:00,58.8,52.3,29.89,SSW,212,0.0,0.0,79,0.00,,---,0.00,VWS V14.01,2013-09-23 06:11:00,
2013-09-22 23:16:00,58.8,52.7,29.89,SSW,212,0.0,0.0,80,0.00,,---,0.00,VWS V14.01,2013-09-23 06:16:00,
2013-09-22 23:21:00,58.7,52.6,29.89,SSW,212,0.0,0.0,80,0.00,,---,0.00,VWS V14.01,2013-09-23 06:21:00,
2013-09-22 23:26:00,58.9,52.8,29.89,SSW,212,0.0,0.0,80,0.00,,---,0.00,VWS V14.01,2013-09-23 06:26:00,
2013-09-22 23:31:00,60.0,53.1,29.89,West,259,0.0,1.0,78,0.00,,---,0.00,VWS V14.01,2013-09-23 06:31:00,
2013-09-22 23:36:00,60.6,53.0,29.89,West,259,0.0,1.0,76,0.00,,---,0.00,VWS V14.01,2013-09-23 06:36:00,
2013-09-22 23:41:00,61.1,53.1,29.89,West,259,0.0,1.0,75,0.00,,---,0.00,VWS V14.01,2013-09-23 06:41:00,
2013-09-22 23:46:00,61.2,53.2,29.89,West,259,0.0,1.0,75,0.00,,---,0.00,VWS V14.01,2013-09-23 06:46:00,
2013-09-22 23:51:00,61.2,53.2,29.89,West,259,0.0,3.0,75,0.00,,---,0.00,VWS V14.01,2013-09-23 06:51:00,
2013-09-22 23:56:00,61.4,53.0,29.89,West,259,0.0,3.0,74,0.00,,---,0.00,VWS V14.01,2013-09-23 06:56:00,